Aérodrome :
LOGIN :

S'inscrire | Disclaimer

   EN    FR    IT 

 










Légende :    VFR   VFR Marginal   IFR   IFR Intensif   IFR Très Intensif
Visi : 
Plafond : 
>= 8 km
>= 3000ft
5 à 8 km
1000 à 3000 ft
1500m à 5 km
500 à 1000 ft
800 à 1500m
200 à 500 ft
< 800m
< 200 ft
Symboles :   Orages  Brouillard  Fortes neiges  Fortes précipitations  Vent > 20 kt
SIGMETs :   Divers  Orages  Givrage  Turbulence  Onde Orograph.  Cendres Volcan.







- Altitude de l'aérodrome : 404 ft
- Code IATA : WRO


EPWR - Wroclaw

DERNIER METAR :
  • 270800Z VRB04KT CAVOK 12/04 Q1019

METARs EXPIRÉS :
  • 270730Z 29004KT 240V360 CAVOK 12/05 Q1019
  • 270700Z 27004KT 240V310 CAVOK 11/03 Q1019
  • 270630Z 25004KT CAVOK 10/04 Q1019
  • 270600Z 23005KT CAVOK 09/04 Q1019
  • 270530Z 24006KT CAVOK 08/04 Q1019

TAF TAF EPWR
Valide du 27 à 06h jusqu'au 28 à 06h UTC


270530Z 2706/2806 23006KT CAVOK
PROB30
TEMPO 2708/2715 SCT040TCU
BECMG 2713/2716 14010KT
Pas de NOTAMs connus pour ce terrain.



MET'MAP, la Météo Aéronautique d'un coup d'oeil ! - Copyright ORBIFLY Décembre 2007 - Disclaimer

ORBIFLY MET'MAP TEAM :

Programmation & Développement : Alexandra Zaïnal
Conception & Développement : Baudouin d'Aumeries
Co-Programmation & Développement : Marc-Olivier Méhu
Soutien technique & logistique : Manuel Goepfert

Contact : metmap@orbifly.com




SOURCES & CREDITS :

   NOAA